Time;durP1;ratioP1;P1;durP2;ratioP2;P2;SDS_P1;SDS_P2;PMS_P1;PMS_P2;Temp;Humidity;BMP_temperature;BMP_pressure;BME280_temperature;BME280_humidity;BME280_pressure;Samples;Min_cycle;Max_cycle;Signal;HPM_P1;HPM_P2
2022/06/28 00:01:58;;;;;;;14.00;6.90;;;;;;;22.19;81.13;100112.72;5047573;28;20055;-28
2022/06/28 00:04:23;;;;;;;10.02;6.60;;;;;;;22.34;80.20;100123.41;5066072;28;20042;-30
2022/06/28 00:06:49;;;;;;;9.25;5.63;;;;;;;22.41;78.93;100121.13;5066474;28;20040;-29
2022/06/28 00:09:15;;;;;;;9.40;6.30;;;;;;;22.06;80.64;100120.53;5066082;28;20052;-28
2022/06/28 00:11:43;;;;;;;9.02;6.20;;;;;;;22.39;79.40;100117.91;5056020;28;20062;-32
2022/06/28 00:16:55;;;;;;;10.90;6.07;;;;;;;22.84;77.25;100110.06;5073847;28;21112;-29
2022/06/28 00:19:21;;;;;;;9.55;6.28;;;;;;;22.34;79.04;100114.44;5068651;28;20111;-32
2022/06/28 00:21:48;;;;;;;9.85;6.60;;;;;;;21.96;80.61;100109.81;5079351;28;20486;-30
2022/06/28 00:24:13;;;;;;;22.95;15.60;;;;;;;21.71;80.50;100118.31;5068440;28;20029;-30
2022/06/28 00:26:39;;;;;;;10.55;7.53;;;;;;;21.16;82.27;100105.91;5069906;28;20040;-29
2022/06/28 00:29:05;;;;;;;12.65;7.78;;;;;;;21.35;83.84;100113.28;5069789;28;20408;-33
2022/06/28 00:31:30;;;;;;;40.05;28.05;;;;;;;21.18;84.44;100106.44;5076741;28;20039;-28
2022/06/28 00:33:56;;;;;;;12.70;8.40;;;;;;;21.05;84.57;100107.13;5085458;28;20035;-32
2022/06/28 00:36:21;;;;;;;18.52;10.65;;;;;;;20.95;85.41;100096.41;5089941;28;20032;-30
2022/06/28 00:38:46;;;;;;;13.52;7.82;;;;;;;20.89;85.43;100086.72;5082692;28;20085;-34
2022/06/28 00:41:12;;;;;;;16.20;8.80;;;;;;;20.82;84.54;100087.84;5069935;28;20025;-30
2022/06/28 00:43:37;;;;;;;10.27;7.28;;;;;;;20.75;84.80;100092.78;5069850;28;20033;-29
2022/06/28 00:46:03;;;;;;;9.60;7.40;;;;;;;20.48;84.31;100072.41;5069772;28;20170;-30
2022/06/28 00:48:29;;;;;;;12.65;8.05;;;;;;;20.38;84.80;100077.13;5051465;28;20044;-28
2022/06/28 00:50:55;;;;;;;12.73;8.63;;;;;;;20.19;86.13;100085.94;5050980;28;20036;-28
2022/06/28 00:53:21;;;;;;;13.70;7.80;;;;;;;19.93;87.42;100081.78;5069353;28;20025;-28
2022/06/28 00:55:48;;;;;;;9.65;8.20;;;;;;;19.93;88.11;100085.31;5069429;28;20032;-28
2022/06/28 00:58:15;;;;;;;15.88;8.63;;;;;;;20.02;88.33;100091.75;5051276;28;20111;-31
2022/06/28 01:00:44;;;;;;;11.43;8.88;;;;;;;20.01;88.53;100087.41;5051150;28;20060;-30
2022/06/28 01:03:13;;;;;;;10.70;8.82;;;;;;;19.94;88.28;100062.56;5067083;28;20052;-29
2022/06/28 01:05:41;;;;;;;13.88;8.65;;;;;;;20.04;89.17;100086.03;5050753;28;20067;-33
2022/06/28 01:08:07;;;;;;;9.75;8.75;;;;;;;20.15;90.33;100084.09;5067974;28;20032;-31
2022/06/28 01:10:34;;;;;;;13.02;9.15;;;;;;;20.32;90.33;100091.78;5067799;28;20028;-29
2022/06/28 01:13:00;;;;;;;11.67;8.23;;;;;;;20.75;89.18;100087.38;5051071;28;20079;-28
2022/06/28 01:15:27;;;;;;;12.18;8.23;;;;;;;20.55;88.46;100087.53;5050874;28;20043;-30
2022/06/28 01:17:53;;;;;;;11.02;8.05;;;;;;;20.48;87.43;100077.03;5050758;28;20585;-31
2022/06/28 01:20:19;;;;;;;9.85;7.85;;;;;;;20.42;88.08;100073.56;5067853;28;20029;-28
2022/06/28 01:22:44;;;;;;;12.77;9.30;;;;;;;20.48;89.22;100091.38;5051005;28;20024;-28
2022/06/28 01:25:11;;;;;;;13.60;9.15;;;;;;;20.57;89.95;100098.91;5068756;28;20111;-28
2022/06/28 01:27:37;;;;;;;9.77;8.55;;;;;;;20.46;89.70;100080.03;5050562;28;20050;-28
2022/06/28 01:30:04;;;;;;;9.68;7.97;;;;;;;20.59;89.23;100077.78;5066716;28;20047;-31
2022/06/28 01:32:30;;;;;;;9.90;7.40;;;;;;;20.61;86.53;100092.66;5050557;28;20020;-29
2022/06/28 01:34:56;;;;;;;10.85;7.25;;;;;;;20.48;86.61;100088.66;5068969;28;20563;-28
2022/06/28 01:37:23;;;;;;;12.30;8.48;;;;;;;20.39;86.29;100093.09;5050527;28;20116;-32
2022/06/28 01:39:48;;;;;;;9.30;7.80;;;;;;;20.41;87.06;100082.78;5068666;28;20481;-27
2022/06/28 01:42:14;;;;;;;9.57;8.20;;;;;;;20.30;85.72;100086.66;5068533;28;20091;-30
2022/06/28 01:44:41;;;;;;;12.60;8.38;;;;;;;20.21;88.17;100101.91;5068430;28;20416;-28
2022/06/28 01:47:07;;;;;;;11.38;8.70;;;;;;;19.97;87.91;100108.00;5049896;28;20043;-30
2022/06/28 01:49:33;;;;;;;14.40;8.82;;;;;;;19.84;88.65;100084.28;5066904;28;20135;-29
2022/06/28 01:51:58;;;;;;;12.30;8.57;;;;;;;19.91;89.89;100095.59;5068852;28;20194;-28
2022/06/28 01:54:25;;;;;;;11.00;8.63;;;;;;;20.04;91.47;100089.56;5068473;28;20033;-29
2022/06/28 01:56:51;;;;;;;13.38;8.18;;;;;;;20.22;88.61;100095.38;5050153;28;20020;-31
2022/06/28 01:59:17;;;;;;;9.95;8.27;;;;;;;20.16;86.30;100091.09;5049744;28;20488;-29
2022/06/28 02:01:43;;;;;;;9.52;7.95;;;;;;;19.94;87.89;100073.41;5049663;28;20403;-31
2022/06/28 02:04:26;;;;;;;10.13;8.10;;;;;;;20.09;90.23;100090.63;5066698;28;20461;-29
2022/06/28 02:06:52;;;;;;;11.25;7.90;;;;;;;19.94;87.57;100100.47;5050081;28;20039;-33
2022/06/28 02:09:17;;;;;;;9.60;8.55;;;;;;;19.83;90.88;100093.47;5049577;28;20028;-28
2022/06/28 02:11:43;;;;;;;11.32;8.88;;;;;;;19.79;89.97;100065.38;5067887;28;20032;-31
2022/06/28 02:14:09;;;;;;;10.43;8.43;;;;;;;19.81;89.78;100071.31;5067633;28;20074;-29
2022/06/28 02:16:34;;;;;;;11.38;8.95;;;;;;;19.79;90.31;100070.78;5049793;28;20591;-30
2022/06/28 02:19:00;;;;;;;11.40;8.65;;;;;;;19.90;89.77;100075.06;5067730;28;20023;-28
2022/06/28 02:21:26;;;;;;;12.25;8.98;;;;;;;20.27;90.16;100095.38;5065959;28;20029;-29
2022/06/28 02:23:51;;;;;;;10.43;8.75;;;;;;;20.39;87.20;100073.31;5033073;28;20024;-29
2022/06/28 02:26:17;;;;;;;11.02;8.35;;;;;;;20.76;86.04;100096.31;5067535;28;20029;-32
2022/06/28 02:28:42;;;;;;;22.88;10.35;;;;;;;20.15;89.07;100089.50;5067642;28;20024;-29
2022/06/28 02:31:12;;;;;;;12.88;9.30;;;;;;;20.16;90.12;100091.91;5067442;28;20048;-29
2022/06/28 02:33:39;;;;;;;12.05;9.20;;;;;;;20.40;88.30;100088.47;5032754;28;20115;-29
2022/06/28 02:41:34;;;;;;;10.38;9.20;;;;;;;20.13;88.18;100102.50;5066662;28;20593;-34
2022/06/28 02:43:59;;;;;;;13.40;9.38;;;;;;;20.05;88.55;100106.63;5049524;28;20052;-29
2022/06/28 02:46:25;;;;;;;11.75;9.85;;;;;;;20.17;89.88;100092.72;5067740;28;20115;-30
2022/06/28 02:48:50;;;;;;;11.02;9.25;;;;;;;20.20;90.51;100108.41;5067480;28;20416;-34
2022/06/28 02:51:16;;;;;;;12.82;10.13;;;;;;;20.40;90.81;100104.72;5067253;28;20091;-29
2022/06/28 02:53:41;;;;;;;12.23;10.07;;;;;;;19.95;90.35;100096.66;5067104;28;20124;-28
2022/06/28 02:56:07;;;;;;;12.57;9.77;;;;;;;20.19;90.17;100109.50;5067588;28;20021;-28
2022/06/28 02:58:32;;;;;;;13.18;9.85;;;;;;;20.18;90.49;100113.28;5067244;28;20086;-29
2022/06/28 03:00:58;;;;;;;12.52;10.00;;;;;;;19.99;90.90;100103.13;5067275;28;20451;-29
2022/06/28 03:03:24;;;;;;;15.27;9.88;;;;;;;20.37;89.58;100108.00;5066792;28;20668;-33
2022/06/28 03:05:50;;;;;;;12.82;9.52;;;;;;;20.15;90.86;100100.31;5067334;28;20024;-29
2022/06/28 03:08:16;;;;;;;13.85;9.85;;;;;;;20.24;89.81;100131.91;5065707;28;20036;-32
2022/06/28 03:10:41;;;;;;;12.95;10.02;;;;;;;20.48;88.72;100107.63;5067521;28;20464;-29
2022/06/28 03:13:07;;;;;;;12.48;9.55;;;;;;;20.37;89.40;100111.53;5067106;28;20033;-29
2022/06/28 03:15:32;;;;;;;14.27;11.00;;;;;;;20.48;89.38;100136.63;5067258;28;20024;-29
2022/06/28 03:17:58;;;;;;;13.02;10.05;;;;;;;20.33;89.17;100117.78;5067164;28;20131;-28
2022/06/28 03:20:24;;;;;;;13.13;10.35;;;;;;;20.43;89.47;100140.19;5067096;28;20024;-28
2022/06/28 03:22:50;;;;;;;12.93;10.02;;;;;;;20.56;88.91;100129.81;5065574;28;20488;-33
2022/06/28 03:25:15;;;;;;;12.30;9.95;;;;;;;20.55;88.63;100123.56;5066533;28;20067;-29
2022/06/28 03:27:41;;;;;;;14.07;10.90;;;;;;;20.47;89.06;100114.16;5067016;28;20032;-29
2022/06/28 03:30:07;;;;;;;13.80;11.32;;;;;;;20.35;89.17;100129.97;5048957;28;20033;-30
2022/06/28 03:32:33;;;;;;;15.30;11.77;;;;;;;20.41;90.71;100131.53;5048619;28;20060;-28
2022/06/28 03:34:58;;;;;;;14.05;11.35;;;;;;;20.33;88.60;100115.91;5066549;28;20139;-31
2022/06/28 03:37:24;;;;;;;13.00;11.70;;;;;;;20.33;90.20;100112.34;5066402;28;20474;-31
2022/06/28 03:39:49;;;;;;;12.35;11.15;;;;;;;20.50;89.27;100123.59;5066656;28;20575;-29
2022/06/28 03:42:15;;;;;;;14.73;11.93;;;;;;;20.39;88.16;100114.75;5065703;28;20028;-35
2022/06/28 03:44:41;;;;;;;15.23;12.32;;;;;;;19.85;90.80;100102.13;5066732;28;20028;-32
2022/06/28 03:47:06;;;;;;;14.60;12.80;;;;;;;19.69;92.10;100095.97;5048045;28;20029;-28
2022/06/28 03:49:32;;;;;;;14.23;11.90;;;;;;;19.75;92.48;100097.56;5066522;28;20867;-28
2022/06/28 03:51:58;;;;;;;14.18;11.48;;;;;;;19.76;93.35;100088.38;5066787;28;20549;-30
2022/06/28 03:54:24;;;;;;;14.20;12.23;;;;;;;19.93;91.38;100093.41;5052249;28;20033;-28
2022/06/28 03:56:50;;;;;;;11.85;9.93;;;;;;;20.23;89.44;100100.53;5052436;28;20036;-31
2022/06/28 03:59:15;;;;;;;11.43;10.15;;;;;;;20.65;88.90;100109.94;5070214;28;20029;-29
2022/06/28 04:01:40;;;;;;;16.92;10.13;;;;;;;20.65;89.36;100120.78;5070370;28;20036;-37
2022/06/28 04:04:06;;;;;;;11.02;9.90;;;;;;;20.78;87.73;100134.75;5051978;28;20412;-29
2022/06/28 04:06:31;;;;;;;14.80;9.80;;;;;;;20.96;86.37;100130.53;5070208;28;20081;-28
2022/06/28 04:08:57;;;;;;;11.18;9.68;;;;;;;20.83;87.07;100143.66;5069985;28;20027;-32
2022/06/28 04:11:22;;;;;;;11.90;9.75;;;;;;;20.74;88.35;100145.41;5070121;28;20086;-28
2022/06/28 04:13:49;;;;;;;13.02;9.50;;;;;;;21.11;86.66;100148.56;5068847;28;20068;-30
2022/06/28 04:16:16;;;;;;;16.02;10.02;;;;;;;21.10;85.23;100136.91;5051920;28;20067;-31
2022/06/28 04:18:43;;;;;;;11.07;8.93;;;;;;;21.28;82.48;100132.63;5068774;28;20507;-28
2022/06/28 04:21:10;;;;;;;12.48;9.55;;;;;;;21.42;83.29;100144.44;5051655;28;20060;-28
2022/06/28 04:23:36;;;;;;;13.40;8.60;;;;;;;21.29;82.42;100128.84;5051498;28;20041;-32
2022/06/28 04:26:03;;;;;;;10.10;9.00;;;;;;;21.43;82.25;100113.53;5068330;28;20035;-33
2022/06/28 04:28:28;;;;;;;10.60;9.00;;;;;;;21.61;81.66;100128.19;5069921;28;20085;-32
2022/06/28 04:30:55;;;;;;;10.80;9.32;;;;;;;21.66;81.04;100103.72;5051554;28;20129;-30
2022/06/28 04:33:20;;;;;;;12.50;9.57;;;;;;;21.75;81.82;100125.56;5051414;28;20059;-30
2022/06/28 04:35:46;;;;;;;12.05;10.05;;;;;;;21.65;81.87;100126.50;5069648;28;20893;-33
2022/06/28 04:38:11;;;;;;;13.52;9.95;;;;;;;21.51;82.67;100131.03;5069655;28;20032;-32
2022/06/28 04:40:37;;;;;;;11.05;8.77;;;;;;;21.39;81.88;100101.59;5069744;28;20056;-31
2022/06/28 04:43:02;;;;;;;10.60;9.50;;;;;;;21.47;83.04;100105.59;5069401;28;20039;-40
2022/06/28 04:45:29;;;;;;;11.18;9.30;;;;;;;21.45;81.17;100100.47;5068139;28;20016;-31
2022/06/28 04:47:55;;;;;;;12.20;9.23;;;;;;;21.36;81.84;100106.78;5069489;28;20415;-30
2022/06/28 04:50:20;;;;;;;12.77;8.70;;;;;;;21.04;81.36;100102.81;5069750;28;20040;-33
2022/06/28 04:52:46;;;;;;;9.75;8.70;;;;;;;21.20;81.75;100130.56;5069602;28;20144;-31
2022/06/28 04:55:11;;;;;;;9.70;8.32;;;;;;;21.19;81.18;100121.63;5069492;28;20400;-32
2022/06/28 04:57:36;;;;;;;9.48;7.80;;;;;;;21.57;80.55;100140.72;5069612;28;20494;-29
2022/06/28 05:00:04;;;;;;;11.05;8.55;;;;;;;21.83;79.56;100143.13;5069177;28;20453;-33
2022/06/28 05:02:29;;;;;;;13.40;8.88;;;;;;;22.13;78.13;100154.66;5034591;28;20052;-30
2022/06/28 05:04:55;;;;;;;12.15;7.88;;;;;;;22.32;76.83;100163.63;5068140;28;20033;-30
2022/06/28 05:07:20;;;;;;;11.02;8.18;;;;;;;22.44;76.76;100149.59;5069655;28;20060;-30
2022/06/28 05:09:46;;;;;;;9.40;8.40;;;;;;;22.76;76.70;100147.97;5069646;28;20028;-35
2022/06/28 05:12:11;;;;;;;9.57;8.57;;;;;;;23.03;74.32;100148.09;5069317;28;20052;-31
2022/06/28 05:14:37;;;;;;;9.98;8.02;;;;;;;23.23;73.97;100151.50;5050878;28;20108;-30
2022/06/28 05:17:02;;;;;;;9.93;7.85;;;;;;;23.43;72.87;100172.09;5067187;28;20033;-34
2022/06/28 05:19:30;;;;;;;9.93;7.93;;;;;;;23.60;70.33;100166.03;5069014;28;20063;-32
2022/06/28 05:21:56;;;;;;;10.13;7.80;;;;;;;23.25;70.24;100161.00;5067634;28;20024;-31
2022/06/28 05:24:22;;;;;;;9.80;8.45;;;;;;;22.95;73.69;100139.78;5068844;28;20035;-33
2022/06/28 05:26:47;;;;;;;11.23;8.63;;;;;;;23.12;72.42;100172.66;5068811;28;20033;-30
2022/06/28 05:29:13;;;;;;;11.40;8.15;;;;;;;23.15;71.00;100155.75;5068889;28;20407;-34
2022/06/28 05:31:38;;;;;;;9.77;8.32;;;;;;;23.18;73.00;100149.69;5050501;28;20471;-30
2022/06/28 05:34:04;;;;;;;10.48;8.00;;;;;;;23.27;70.29;100155.25;5068522;28;20568;-33
2022/06/28 05:36:29;;;;;;;11.82;7.72;;;;;;;23.40;70.04;100168.06;5050645;28;20041;-30
2022/06/28 05:38:55;;;;;;;10.98;8.65;;;;;;;23.60;70.52;100169.56;5067333;28;20030;-32
2022/06/28 05:41:21;;;;;;;11.50;8.50;;;;;;;23.83;69.86;100178.66;5067052;28;20029;-31
2022/06/28 05:43:46;;;;;;;13.98;8.40;;;;;;;23.98;70.20;100171.25;5068336;28;20036;-32
2022/06/28 05:46:11;;;;;;;8.93;7.93;;;;;;;24.12;69.58;100176.69;5068533;28;20054;-32
2022/06/28 05:48:37;;;;;;;9.13;7.65;;;;;;;24.18;67.35;100178.97;5077451;28;20032;-30
2022/06/28 05:51:03;;;;;;;8.98;7.50;;;;;;;24.27;67.19;100185.31;5068557;28;20052;-30
2022/06/28 05:53:29;;;;;;;8.82;7.07;;;;;;;24.40;67.53;100189.09;5050317;28;20090;-31
2022/06/28 05:55:54;;;;;;;10.25;7.35;;;;;;;24.48;67.62;100168.47;5050305;28;21006;-34
2022/06/28 05:58:20;;;;;;;8.68;7.05;;;;;;;24.66;65.23;100191.22;5068166;28;20048;-30
2022/06/28 06:00:46;;;;;;;6.80;5.68;;;;;;;24.62;62.23;100195.69;5073482;28;20027;-31
2022/06/28 06:03:11;;;;;;;11.52;6.60;;;;;;;24.67;64.51;100187.41;5066345;28;20075;-32
2022/06/28 06:05:37;;;;;;;11.68;7.10;;;;;;;24.74;63.83;100178.78;5077455;28;20034;-33
2022/06/28 06:08:02;;;;;;;7.85;6.18;;;;;;;24.76;61.51;100169.16;5083403;28;20035;-34
2022/06/28 06:10:28;;;;;;;8.95;7.00;;;;;;;24.95;64.40;100173.63;5076989;28;20053;-35
2022/06/28 06:12:54;;;;;;;7.38;5.88;;;;;;;24.97;62.43;100152.31;5077425;28;20032;-31
2022/06/28 06:15:20;;;;;;;9.82;6.15;;;;;;;25.08;60.56;100159.09;5067764;28;20028;-32
2022/06/28 06:17:46;;;;;;;8.55;6.05;;;;;;;25.06;59.75;100172.22;5077367;28;20024;-34
2022/06/28 06:20:11;;;;;;;10.07;7.03;;;;;;;25.08;61.07;100172.72;5093609;28;20089;-35
2022/06/28 06:22:37;;;;;;;8.48;6.22;;;;;;;25.39;61.60;100169.19;5077390;28;20028;-30
2022/06/28 06:25:03;;;;;;;8.35;6.63;;;;;;;25.56;61.98;100147.41;5076988;28;20020;-36
2022/06/28 06:27:29;;;;;;;10.15;6.53;;;;;;;25.59;59.88;100146.75;5068441;28;20032;-32
2022/06/28 06:29:54;;;;;;;7.47;6.05;;;;;;;25.71;59.08;100176.19;5076700;28;20021;-31
2022/06/28 06:32:20;;;;;;;10.70;7.18;;;;;;;25.82;59.34;100177.50;5075868;28;20023;-33
2022/06/28 06:34:46;;;;;;;7.45;6.07;;;;;;;25.77;58.60;100174.13;5077956;28;20157;-32
2022/06/28 06:37:11;;;;;;;8.68;6.28;;;;;;;25.78;57.91;100164.78;5075737;28;20112;-31
2022/06/28 06:39:37;;;;;;;8.68;6.68;;;;;;;25.91;61.07;100174.81;5078214;28;20099;-30
2022/06/28 06:42:03;;;;;;;8.55;6.55;;;;;;;25.82;58.35;100171.22;5077483;28;20110;-31
2022/06/28 06:44:28;;;;;;;9.60;6.95;;;;;;;25.92;59.17;100160.03;5077193;28;20032;-33
2022/06/28 06:46:55;;;;;;;9.65;6.38;;;;;;;26.04;58.06;100184.00;5075915;28;20032;-33
2022/06/28 06:49:20;;;;;;;10.00;6.35;;;;;;;26.19;58.20;100182.72;5077064;28;20023;-34
2022/06/28 06:51:48;;;;;;;8.32;6.78;;;;;;;26.28;57.32;100172.59;5077489;28;20403;-31
2022/06/28 06:54:14;;;;;;;7.60;5.88;;;;;;;26.44;59.99;100184.66;5057390;28;20113;-34
2022/06/28 06:56:41;;;;;;;8.52;6.68;;;;;;;26.75;57.32;100172.75;5070301;28;20059;-36
2022/06/28 06:59:07;;;;;;;11.40;6.20;;;;;;;26.71;54.12;100181.94;5058852;28;20099;-32
2022/06/28 07:01:34;;;;;;;8.90;6.18;;;;;;;26.81;57.04;100196.06;5066544;28;20384;-34
2022/06/28 07:04:03;;;;;;;8.55;6.03;;;;;;;26.99;57.12;100176.84;5063291;28;20926;-31
2022/06/28 07:06:29;;;;;;;10.43;6.25;;;;;;;27.16;58.63;100190.50;5055790;28;20029;-34
2022/06/28 07:08:54;;;;;;;9.70;7.13;;;;;;;27.42;58.18;100195.06;5067087;28;20030;-33
2022/06/28 07:11:20;;;;;;;8.88;6.85;;;;;;;27.65;54.28;100193.69;5066738;28;20565;-32
2022/06/28 07:13:45;;;;;;;13.27;7.03;;;;;;;27.91;55.90;100203.72;5067176;28;20028;-31
2022/06/28 07:16:11;;;;;;;10.20;6.18;;;;;;;27.90;57.48;100201.31;5066937;28;20710;-32
2022/06/28 07:18:36;;;;;;;9.77;6.05;;;;;;;28.11;52.92;100182.13;5067543;28;20031;-31
2022/06/28 07:21:02;;;;;;;8.57;6.30;;;;;;;28.05;55.31;100187.84;5067203;28;20455;-41
2022/06/28 07:23:28;;;;;;;8.35;6.03;;;;;;;28.01;51.93;100186.91;5067056;28;20032;-31
2022/06/28 07:25:53;;;;;;;8.30;6.05;;;;;;;28.10;54.19;100183.28;5066967;28;20119;-31
2022/06/28 07:28:18;;;;;;;8.65;6.70;;;;;;;28.21;55.20;100179.00;5064917;28;20037;-32
2022/06/28 07:30:44;;;;;;;9.68;6.22;;;;;;;28.37;51.82;100188.22;5066902;28;20035;-33
2022/06/28 07:33:10;;;;;;;9.60;5.72;;;;;;;28.49;52.07;100172.97;5066478;28;20136;-30
2022/06/28 07:35:36;;;;;;;6.97;5.75;;;;;;;28.76;52.10;100166.09;5049024;28;20047;-32
2022/06/28 07:38:02;;;;;;;9.10;5.63;;;;;;;28.90;51.22;100177.56;5065464;28;20024;-31
2022/06/28 07:40:27;;;;;;;7.75;5.50;;;;;;;28.77;49.37;100179.47;5066954;28;20025;-30
2022/06/28 07:42:53;;;;;;;7.10;4.88;;;;;;;28.82;47.45;100165.53;5066777;28;20028;-31
2022/06/28 07:45:18;;;;;;;7.70;5.30;;;;;;;28.93;48.37;100160.44;5066526;28;20135;-30
2022/06/28 07:47:47;;;;;;;6.88;4.35;;;;;;;29.23;47.29;100169.28;5066637;28;20108;-32
2022/06/28 07:53:01;;;;;;;6.45;3.80;;;;;;;29.60;45.04;100161.03;5066762;28;20036;-32
2022/06/28 07:55:26;;;;;;;4.93;3.92;;;;;;;29.83;43.38;100183.38;5048493;28;20036;-31
2022/06/28 07:57:52;;;;;;;6.82;4.30;;;;;;;29.55;46.20;100161.28;5066808;28;20032;-38
2022/06/28 08:00:19;;;;;;;7.50;4.40;;;;;;;29.58;46.44;100166.06;5048913;28;20052;-31
2022/06/28 08:02:45;;;;;;;7.47;4.40;;;;;;;29.30;46.29;100178.91;5048234;28;20056;-34
2022/06/28 08:05:11;;;;;;;9.60;4.28;;;;;;;29.14;47.47;100174.09;5066312;28;20537;-31
2022/06/28 08:07:37;;;;;;;7.88;4.28;;;;;;;29.28;47.71;100175.69;5066862;28;20107;-32
2022/06/28 08:10:02;;;;;;;6.43;4.70;;;;;;;29.23;48.81;100161.03;5066499;28;20468;-30
2022/06/28 08:12:28;;;;;;;10.63;4.38;;;;;;;28.93;48.42;100154.94;5066335;28;20032;-32
2022/06/28 08:14:53;;;;;;;10.90;4.75;;;;;;;29.12;47.44;100156.38;5066386;28;20502;-31
2022/06/28 08:17:19;;;;;;;57.00;7.75;;;;;;;29.35;50.64;100153.97;5066317;28;20468;-33
2022/06/28 08:19:45;;;;;;;13.48;4.97;;;;;;;29.32;45.97;100147.22;5066563;28;20027;-30
2022/06/28 08:22:10;;;;;;;7.32;4.22;;;;;;;29.33;44.44;100161.75;5048414;28;20098;-34
2022/06/28 08:24:36;;;;;;;12.35;5.18;;;;;;;29.35;47.28;100135.53;5064991;28;20036;-31
2022/06/28 08:27:01;;;;;;;8.77;4.55;;;;;;;29.34;48.24;100160.59;5066019;28;20044;-32
2022/06/28 08:29:27;;;;;;;6.97;4.53;;;;;;;29.63;50.32;100154.84;5066292;28;20035;-38
2022/06/28 08:31:52;;;;;;;7.35;4.28;;;;;;;30.05;46.95;100157.31;5066275;28;20436;-31
2022/06/28 08:34:17;;;;;;;5.32;3.75;;;;;;;30.55;47.06;100148.91;5066512;28;20044;-35
2022/06/28 08:36:43;;;;;;;5.82;3.97;;;;;;;30.59;44.71;100138.78;5066154;28;20112;-31
2022/06/28 08:39:09;;;;;;;7.43;4.00;;;;;;;30.55;43.08;100122.19;5066745;28;20031;-30
2022/06/28 08:41:34;;;;;;;6.90;4.30;;;;;;;30.68;43.09;100135.88;5069767;28;20063;-33
2022/06/28 08:44:00;;;;;;;6.65;4.10;;;;;;;30.76;42.27;100143.97;5051612;28;20028;-32
2022/06/28 08:46:26;;;;;;;6.25;3.83;;;;;;;30.99;44.45;100141.41;5068456;28;20043;-34
2022/06/28 08:48:58;;;;;;;6.25;3.72;;;;;;;30.79;45.94;100132.25;5069450;28;20032;-33
2022/06/28 08:51:30;;;;;;;5.43;3.58;;;;;;;30.97;42.65;100127.19;5051297;28;20119;-31
2022/06/28 08:53:58;;;;;;;10.13;3.33;;;;;;;31.34;41.24;100126.91;5051418;28;20496;-31
2022/06/28 08:56:24;;;;;;;7.88;3.47;;;;;;;31.53;40.73;100137.22;5067957;28;20029;-32
2022/06/28 08:58:50;;;;;;;14.07;4.00;;;;;;;31.62;39.55;100129.56;5069418;28;20103;-30
2022/06/28 09:01:16;;;;;;;9.88;3.88;;;;;;;31.12;39.30;100122.03;5051160;28;20066;-37
2022/06/28 09:03:41;;;;;;;7.82;3.30;;;;;;;31.00;38.87;100133.97;5069111;28;20516;-32
2022/06/28 09:06:07;;;;;;;7.43;3.40;;;;;;;30.87;39.67;100126.91;5051204;28;20036;-31
2022/06/28 09:08:33;;;;;;;13.43;3.67;;;;;;;30.68;42.41;100125.66;5069183;28;20028;-34
2022/06/28 09:10:58;;;;;;;27.52;4.10;;;;;;;31.00;40.36;100122.97;5068032;28;20129;-32
2022/06/28 09:13:24;;;;;;;4.70;3.15;;;;;;;31.35;42.11;100120.25;5069025;28;20035;-33
2022/06/28 09:15:57;;;;;;;9.85;3.88;;;;;;;31.59;41.15;100130.28;5069218;28;20664;-34
2022/06/28 09:18:25;;;;;;;6.88;3.20;;;;;;;31.30;38.63;100119.72;5051093;28;20036;-34
2022/06/28 09:20:56;;;;;;;5.70;3.05;;;;;;;31.28;40.16;100135.81;5050789;28;20496;-33
2022/06/28 09:23:30;;;;;;;5.38;3.10;;;;;;;30.87;39.37;100138.72;5068939;28;20032;-32
2022/06/28 09:26:02;;;;;;;6.60;3.03;;;;;;;31.23;37.88;100123.91;5050767;28;20421;-32
2022/06/28 09:28:29;;;;;;;4.95;3.03;;;;;;;31.80;38.23;100129.16;5067680;28;20204;-33
2022/06/28 09:31:15;;;;;;;7.00;2.92;;;;;;;32.31;40.51;100122.72;5050587;28;20112;-31
2022/06/28 09:33:43;;;;;;;6.22;2.80;;;;;;;32.39;35.54;100107.91;5050499;28;20392;-34
2022/06/28 09:36:09;;;;;;;;;;;;;;;32.58;36.54;100131.94;5059272;28;20111;-35
2022/06/28 09:38:35;;;;;;;11.52;3.22;;;;;;;31.86;34.28;100126.91;5059927;28;20431;-32
2022/06/28 09:41:01;;;;;;;7.93;2.90;;;;;;;31.75;34.57;100130.25;5077580;28;20032;-30
2022/06/28 09:43:33;;;;;;;9.43;3.30;;;;;;;32.47;33.94;100122.59;5069114;28;20113;-37
2022/06/28 09:46:03;;;;;;;6.05;3.58;;;;;;;32.89;33.78;100125.38;5055480;28;20121;-36
2022/06/28 09:48:36;;;;;;;6.38;2.80;;;;;;;32.77;34.73;100125.56;5068306;28;20032;-36
2022/06/28 09:51:01;;;;;;;7.15;2.97;;;;;;;32.94;34.08;100129.81;5073616;28;20045;-31
2022/06/28 09:53:30;;;;;;;5.97;2.72;;;;;;;32.51;34.63;100124.28;5077492;28;20396;-33
2022/06/28 09:56:00;;;;;;;5.55;2.90;;;;;;;32.15;35.08;100133.84;5053730;28;20036;-31
2022/06/28 09:58:26;;;;;;;5.93;2.85;;;;;;;32.32;34.95;100116.81;5079802;28;20126;-30
2022/06/28 10:00:52;;;;;;;5.53;2.60;;;;;;;32.31;36.01;100123.53;5088111;28;20499;-31
2022/06/28 10:03:18;;;;;;;5.18;2.80;;;;;;;32.15;34.54;100106.25;5087989;28;20052;-31
2022/06/28 10:05:43;;;;;;;6.05;2.65;;;;;;;31.50;35.15;100124.16;5070139;28;20024;-32
2022/06/28 10:08:09;;;;;;;11.38;3.25;;;;;;;31.44;37.61;100117.31;5088201;28;20035;-33
2022/06/28 10:10:37;;;;;;;6.43;2.85;;;;;;;32.11;36.51;100122.72;5070069;28;20032;-34
2022/06/28 10:16:01;;;;;;;4.32;2.47;;;;;;;31.21;38.29;100122.66;5088514;28;20682;-30
2022/06/28 10:18:29;;;;;;;6.63;2.80;;;;;;;30.99;36.09;100124.09;5069966;28;20484;-35
2022/06/28 10:20:54;;;;;;;;;;;;;;;30.94;35.94;100127.13;5070138;28;20020;-41
2022/06/28 10:23:42;;;;;;;4.23;2.60;;;;;;;30.40;36.79;100110.00;5087816;28;19915;-33
2022/06/28 10:26:11;;;;;;;4.55;2.53;;;;;;;30.53;37.28;100129.19;5088306;28;20653;-34
2022/06/28 10:28:46;;;;;;;5.47;2.40;;;;;;;30.61;37.58;100125.47;5087941;28;20067;-33
2022/06/28 10:31:21;;;;;;;7.22;2.90;;;;;;;30.91;38.15;100123.13;5087806;28;20028;-33
2022/06/28 10:33:48;;;;;;;4.45;3.00;;;;;;;30.61;38.71;100123.53;5087818;28;20411;-31
2022/06/28 10:36:16;;;;;;;7.35;3.00;;;;;;;30.53;39.05;100112.69;5069364;28;20043;-32
2022/06/28 10:39:09;;;;;;;7.68;3.13;;;;;;;30.53;40.16;100123.69;5069652;28;20514;-32
2022/06/28 10:41:36;;;;;;;5.30;2.70;;;;;;;30.56;40.19;100111.97;5069427;28;20089;-35
2022/06/28 10:44:07;;;;;;;5.70;2.60;;;;;;;30.98;39.51;100111.50;5069712;28;20543;-29
2022/06/28 10:46:33;;;;;;;5.60;2.60;;;;;;;31.02;38.00;100104.91;5069017;28;20032;-32
2022/06/28 10:48:59;;;;;;;4.65;2.92;;;;;;;31.00;40.51;100118.25;5069415;28;20335;-32
2022/06/28 10:51:25;;;;;;;6.25;2.90;;;;;;;31.46;37.80;100114.22;5087507;28;20059;-36
2022/06/28 10:54:06;;;;;;;4.70;2.90;;;;;;;31.54;37.72;100100.22;5087669;28;20024;-31
2022/06/28 10:56:47;;;;;;;6.63;3.10;;;;;;;32.19;37.19;100104.34;5069280;28;20073;-31
2022/06/28 10:59:17;;;;;;;5.95;2.80;;;;;;;32.24;36.51;100101.28;5087171;28;20024;-30
2022/06/28 11:01:45;;;;;;;4.68;3.20;;;;;;;32.06;35.60;100111.19;5068216;28;20036;-30
2022/06/28 11:04:18;;;;;;;6.95;3.05;;;;;;;31.91;37.07;100097.06;5069167;28;20024;-32
2022/06/28 11:06:45;;;;;;;6.07;3.10;;;;;;;31.83;36.61;100100.84;5068913;28;20028;-30
2022/06/28 11:09:43;;;;;;;6.22;2.88;;;;;;;32.12;36.13;100099.50;5068744;28;20032;-31
2022/06/28 11:12:34;;;;;;;5.95;2.92;;;;;;;31.88;35.87;100114.34;5069179;28;20024;-34
2022/06/28 11:15:05;;;;;;;6.22;2.90;;;;;;;31.72;37.52;100099.84;5086715;28;20039;-31
2022/06/28 11:17:36;;;;;;;5.82;2.80;;;;;;;31.32;38.59;100087.88;5087260;28;20499;-34
2022/06/28 11:20:03;;;;;;;7.32;2.92;;;;;;;30.99;40.74;100088.31;5086819;28;20474;-35
2022/06/28 11:22:37;;;;;;;6.72;2.95;;;;;;;30.68;39.97;100089.88;5087459;28;20527;-30
2022/06/28 11:25:05;;;;;;;8.18;3.35;;;;;;;30.80;41.51;100089.78;5068538;28;20528;-30
2022/06/28 11:27:32;;;;;;;5.68;3.10;;;;;;;30.82;41.32;100095.75;5068647;28;20028;-30
2022/06/28 11:30:02;;;;;;;6.40;3.33;;;;;;;31.11;40.80;100103.94;5068681;28;20085;-31
2022/06/28 11:32:30;;;;;;;4.10;2.80;;;;;;;30.59;38.66;100094.75;5086909;28;20051;-33
2022/06/28 11:35:02;;;;;;;7.40;3.20;;;;;;;30.33;40.61;100087.00;5068773;28;20119;-32